Главная страница
METAR-TAF:

METAR-TAF

Аэропорты :

Pittsburgh International Airport

Питтсбург, Пенсильвания, США

широта: 40-30-14N, долгота: 080-15-59W, высота над уровнем моря: 366 м

Текущие метеонаблюдения

Эта сводка был подготовлена 33 минут назад, в 23:51 UTC
Ветер 7 Узел от северный
Температура 22°C
Влажность 50%
Давление 1021 hPa
Видимость: 16.1 км
Отдельные облака на высоте 25000 фута

METAR: KPIT 232351Z 35007KT 10SM SCT250 22/11 A3014 RMK AO2 SLP209 T02220111 10233 20200 57001

Время: 20:24 (00:24 UTC)

Прогноз

Эта сводка был подготовлена 1 час и 4 минут назад, в 23:20 UTC
Прогноз действительный с 24-го 00 UTC до 25-го 06 UTC
Ветер 3 Узел переменных направлений
Видимость: 10 км
ясное небо

TAF: KPIT 232320Z 2400/2506 VRB03KT P6SM SKC

Метеонаблюдения и прогнозы для более 4000 аэропортов (сводки METAR и TAF).

Имеющиеся станции представлены на карте желтыми и красными точками.

Чтобы увидеть название станции, наведите на нее мышь.

Затем щелкните, чтобы увидеть метеонаблюдения и метеопрогнозы.

Управление картой: чтобы увеличить масштаб, щелкните зеленые кнопки с черным крестиком; чтобы уменьшить масштаб, щелкните зеленую кнопку с тире; для просмотра соседних карт щелкайте зеленые стрелки.


METAR-TAF: